Weather at Raleigh East Airport

Public forecast

Using degrees Fahrenheit for public forecast. Weather courtesy of forecast.io.

Closest aviation weather report (METAR) to Raleigh East Airport

Closest report is Triangle North Executive Airport, 14.5 nm (26.9 km) NNE.

2024/06/16 02:45 (retrieved 26 minutes ago)

KLHZ 160245Z AUTO 00000KT 10SM CLR 21/14 A3011 RMK AO2

Closest aviation forecast (TAF) to Raleigh East Airport

Forecast is more than 12 hours old.

Closest forecast is Norfolk Naval Station (Chambers Field), 124.4 nm (230.3 km) NE.

2024/06/15 12:00 Ammendment (retrieved 15 hours ago)

TAF AMD KNGU 1512/1607 VRB04KT 9999 VCTS FEW030CB SCT060 BKN090 QNH2983INS TEMPO 1512/1515 6000 -SHRA BR BKN010 BKN040 OVC250 FM151500 02012G22KT 9999 FEW080 FEW280 QNH2991INS FM152000 05011KT 9999 SKC QNH2993INS FM160000 VRB04KT 9999 FEW100 FEW250 QNH3000INS TX27/1518Z TN19/1606Z AMD 1154 FN00268